Time;durP1;ratioP1;P1;durP2;ratioP2;P2;SDS_P1;SDS_P2;PMS_P1;PMS_P2;Temp;Humidity;BMP_temperature;BMP_pressure;BME280_temperature;BME280_humidity;BME280_pressure;Samples;Min_cycle;Max_cycle;Signal;HPM_P1;HPM_P2
2021/12/19 00:02:17;;;;;;;3.20;3.00;;;18.80;65.00;;;;;;5066471;28;20427;-82
2021/12/19 00:08:27;;;;;;;3.80;3.17;;;18.70;64.80;;;;;;5066395;28;20473;-82
2021/12/19 00:10:33;;;;;;;4.37;2.83;;;18.80;65.00;;;;;;5061352;28;20473;-82
2021/12/19 00:13:18;;;;;;;4.63;3.10;;;18.80;65.00;;;;;;5042207;28;20447;-82
2021/12/19 00:15:47;;;;;;;3.60;2.70;;;18.80;64.90;;;;;;5045220;28;20511;-82
2021/12/19 00:18:15;;;;;;;5.10;2.83;;;18.80;64.90;;;;;;5046189;28;20447;-82
2021/12/19 00:20:43;;;;;;;4.30;2.90;;;18.70;64.80;;;;;;5046356;28;20442;-82
2021/12/19 00:23:38;;;;;;;7.23;3.23;;;18.70;64.80;;;;;;5044185;28;20990;-82
2021/12/19 00:26:09;;;;;;;3.20;2.50;;;18.70;64.80;;;;;;5027840;28;20423;-81
2021/12/19 00:28:41;;;;;;;4.40;2.77;;;18.70;64.80;;;;;;5026287;28;20446;-82
2021/12/19 00:31:09;;;;;;;5.53;3.03;;;18.70;64.90;;;;;;5026318;28;20558;-82
2021/12/19 00:33:38;;;;;;;3.23;2.90;;;18.70;64.90;;;;;;5026032;28;20464;-82
2021/12/19 00:36:11;;;;;;;3.10;2.90;;;18.80;64.90;;;;;;5026588;28;20436;-82
2021/12/19 00:38:40;;;;;;;4.27;3.30;;;18.80;64.90;;;;;;5026274;28;20444;-82
2021/12/19 00:41:10;;;;;;;3.30;2.67;;;18.70;64.70;;;;;;5036417;28;20446;-82
2021/12/19 00:43:53;;;;;;;6.27;3.00;;;18.80;64.80;;;;;;5045430;28;20458;-82
2021/12/19 00:46:22;;;;;;;4.37;2.87;;;18.80;64.80;;;;;;5046537;28;20438;-82
2021/12/19 00:48:52;;;;;;;3.17;2.87;;;18.80;64.80;;;;;;5046763;28;20447;-81
2021/12/19 00:51:22;;;;;;;4.63;3.07;;;18.70;64.80;;;;;;5047536;28;20551;-81
2021/12/19 00:54:18;;;;;;;3.10;2.80;;;18.70;64.70;;;;;;5047595;28;20507;-82
2021/12/19 00:56:49;;;;;;;3.13;2.50;;;18.80;64.80;;;;;;5048014;28;20435;-81
2021/12/19 00:59:19;;;;;;;6.30;2.90;;;18.80;64.90;;;;;;5045419;28;20517;-81
2021/12/19 01:01:47;;;;;;;3.33;3.03;;;18.70;64.80;;;;;;5047362;28;20450;-82
2021/12/19 01:04:17;;;;;;;4.00;2.60;;;18.70;64.70;;;;;;5047035;28;20451;-82
2021/12/19 01:06:45;;;;;;;2.80;2.60;;;18.80;64.80;;;;;;5047118;28;20443;-81
2021/12/19 01:09:13;;;;;;;2.90;2.70;;;18.80;64.90;;;;;;5047159;28;20477;-81
2021/12/19 01:11:41;;;;;;;3.00;2.70;;;18.70;64.70;;;;;;5046609;28;20511;-82
2021/12/19 01:14:11;;;;;;;3.40;2.67;;;18.80;64.80;;;;;;5043667;28;20479;-82
2021/12/19 01:16:40;;;;;;;3.20;2.70;;;18.80;64.80;;;;;;5042759;28;20428;-81
2021/12/19 01:19:08;;;;;;;4.03;2.80;;;18.70;64.80;;;;;;5045926;28;20447;-82
2021/12/19 01:21:36;;;;;;;4.93;2.93;;;18.70;64.60;;;;;;5045376;28;20509;-82
2021/12/19 01:24:05;;;;;;;3.10;2.40;;;18.80;64.70;;;;;;5044660;28;20468;-82
2021/12/19 01:26:32;;;;;;;2.37;1.93;;;18.70;64.50;;;;;;5045232;28;20815;-82
2021/12/19 01:29:02;;;;;;;3.53;2.70;;;18.80;64.60;;;;;;5045654;28;20428;-81
2021/12/19 01:31:31;;;;;;;2.50;2.03;;;18.80;64.70;;;;;;5045469;28;20463;-81
2021/12/19 01:34:00;;;;;;;2.77;2.57;;;18.70;64.40;;;;;;5039628;28;20493;-82
2021/12/19 01:36:28;;;;;;;2.80;2.60;;;18.70;64.50;;;;;;5045284;28;20459;-82
2021/12/19 01:38:56;;;;;;;3.10;2.80;;;18.70;64.60;;;;;;5045937;28;20466;-81
2021/12/19 01:41:24;;;;;;;4.70;2.43;;;18.70;64.60;;;;;;5045052;28;20447;-81
2021/12/19 01:43:52;;;;;;;4.07;2.83;;;18.70;64.50;;;;;;5046192;28;20466;-82
2021/12/19 01:46:46;;;;;;;2.97;2.60;;;18.80;64.70;;;;;;5046560;28;20430;-83
2021/12/19 01:49:15;;;;;;;3.10;2.80;;;18.70;64.50;;;;;;5041391;28;20532;-82
2021/12/19 01:51:43;;;;;;;4.60;2.93;;;18.70;64.30;;;;;;5045245;28;20470;-82
2021/12/19 01:54:12;;;;;;;2.60;2.40;;;18.70;64.40;;;;;;5045861;28;20475;-82
2021/12/19 01:56:40;;;;;;;3.13;2.77;;;18.70;64.30;;;;;;5045706;28;20450;-82
2021/12/19 01:59:10;;;;;;;7.30;2.43;;;18.70;64.60;;;;;;5045776;28;20451;-81
2021/12/19 02:01:42;;;;;;;2.33;2.10;;;18.70;64.50;;;;;;5045602;28;20466;-80
2021/12/19 02:04:11;;;;;;;2.90;2.60;;;18.70;64.50;;;;;;5044344;28;20463;-82
2021/12/19 02:06:40;;;;;;;2.80;2.60;;;18.70;65.10;;;;;;5028541;28;20472;-82
2021/12/19 02:09:09;;;;;;;2.10;2.00;;;18.70;64.50;;;;;;5037884;28;20444;-81
2021/12/19 02:11:38;;;;;;;2.87;2.67;;;18.70;64.50;;;;;;5044920;28;20499;-81
2021/12/19 02:14:06;;;;;;;2.70;2.37;;;18.70;64.40;;;;;;5040046;28;20467;-81
2021/12/19 02:16:34;;;;;;;3.30;2.60;;;18.70;64.40;;;;;;5035035;28;20452;-82
2021/12/19 02:19:01;;;;;;;2.90;2.60;;;18.70;64.40;;;;;;5036286;28;20475;-82
2021/12/19 02:21:31;;;;;;;4.80;2.63;;;18.70;64.50;;;;;;5045171;28;20452;-82
2021/12/19 02:23:59;;;;;;;2.93;2.13;;;18.70;64.40;;;;;;5039200;28;20466;-81
2021/12/19 02:26:27;;;;;;;2.60;2.40;;;18.70;64.40;;;;;;5044709;28;20447;-82
2021/12/19 02:28:55;;;;;;;3.17;2.70;;;18.70;64.30;;;;;;5026495;28;20498;-82
2021/12/19 02:31:23;;;;;;;2.70;2.50;;;18.70;64.30;;;;;;5025777;28;20471;-81
2021/12/19 02:34:02;;;;;;;2.60;2.40;;;18.70;64.30;;;;;;5027435;28;20475;-82
2021/12/19 02:36:46;;;;;;;3.37;2.77;;;18.70;64.30;;;;;;5027067;28;20452;-82
2021/12/19 02:39:41;;;;;;;3.17;2.87;;;18.70;64.30;;;;;;5030333;28;20455;-82
2021/12/19 02:50:26;;;;;;;2.50;2.27;;;18.70;64.60;;;;;;5026480;28;20425;-82
2021/12/19 02:52:56;;;;;;;2.87;2.67;;;18.60;64.60;;;;;;5026442;28;20523;-82
2021/12/19 02:55:24;;;;;;;2.83;2.50;;;18.60;64.40;;;;;;5028549;28;20459;-82
2021/12/19 02:57:53;;;;;;;2.63;2.43;;;18.60;64.40;;;;;;5035326;28;20547;-81
2021/12/19 03:00:22;;;;;;;3.13;2.63;;;18.60;64.50;;;;;;5046120;28;20505;-82
2021/12/19 03:02:50;;;;;;;3.03;2.47;;;18.60;64.40;;;;;;5040109;28;20467;-82
2021/12/19 03:05:19;;;;;;;3.03;2.57;;;18.60;64.40;;;;;;5046478;28;20462;-82
2021/12/19 03:07:49;;;;;;;2.77;2.57;;;18.70;64.50;;;;;;5045787;28;20479;-82
2021/12/19 03:13:17;;;;;;;3.10;2.77;;;18.70;64.40;;;;;;5042748;28;20551;-82
2021/12/19 03:18:30;;;;;;;2.63;2.43;;;18.60;64.10;;;;;;5040463;28;20491;-83
2021/12/19 03:20:58;;;;;;;2.07;1.97;;;18.70;64.40;;;;;;5033006;28;20429;-84
2021/12/19 03:23:27;;;;;;;2.40;2.20;;;18.70;64.30;;;;;;5029743;28;20492;-82
2021/12/19 03:25:56;;;;;;;4.30;3.00;;;18.70;64.20;;;;;;5031380;28;20451;-82
2021/12/19 03:28:25;;;;;;;2.10;2.00;;;18.70;64.10;;;;;;5031788;28;20429;-82
2021/12/19 03:30:53;;;;;;;3.00;2.70;;;18.70;64.20;;;;;;5041693;28;20467;-83
2021/12/19 03:33:21;;;;;;;2.43;2.23;;;18.70;64.10;;;;;;5051869;28;20459;-84
2021/12/19 03:35:49;;;;;;;2.80;2.60;;;18.70;64.00;;;;;;5052396;28;20455;-83
2021/12/19 03:38:17;;;;;;;2.70;2.50;;;18.70;64.30;;;;;;5052263;28;20444;-83
2021/12/19 03:40:52;;;;;;;3.33;2.70;;;18.70;64.10;;;;;;5052025;28;20463;-82
2021/12/19 03:43:23;;;;;;;2.40;2.20;;;18.60;64.00;;;;;;5052432;28;20471;-83
2021/12/19 03:45:51;;;;;;;3.77;2.80;;;18.70;64.10;;;;;;5050844;28;20444;-83
2021/12/19 03:48:20;;;;;;;3.47;2.60;;;18.70;64.30;;;;;;5046311;28;20457;-83
2021/12/19 03:50:49;;;;;;;2.73;2.50;;;18.70;64.20;;;;;;5052386;28;20431;-83
2021/12/19 03:53:18;;;;;;;2.60;2.30;;;18.70;63.90;;;;;;5051661;28;20474;-83
2021/12/19 03:55:46;;;;;;;3.03;2.50;;;18.70;64.10;;;;;;5051715;28;20443;-82
2021/12/19 03:58:14;;;;;;;2.67;2.47;;;18.70;64.00;;;;;;5051751;28;20438;-83
2021/12/19 04:00:45;;;;;;;2.70;2.50;;;18.70;64.10;;;;;;5051357;28;20707;-80
2021/12/19 04:03:18;;;;;;;2.93;2.47;;;18.70;64.00;;;;;;5047076;28;20463;-81
2021/12/19 04:05:46;;;;;;;2.27;2.17;;;18.70;64.10;;;;;;5051637;28;20514;-81
2021/12/19 04:08:14;;;;;;;3.00;2.70;;;18.70;63.90;;;;;;5051336;28;20451;-82
2021/12/19 04:10:42;;;;;;;3.60;2.70;;;18.70;63.90;;;;;;5051072;28;20455;-81
2021/12/19 04:13:10;;;;;;;3.50;2.60;;;18.70;63.80;;;;;;5050935;28;20502;-81
2021/12/19 04:15:38;;;;;;;3.70;3.00;;;18.70;63.80;;;;;;5049229;28;20444;-81
2021/12/19 04:18:08;;;;;;;2.60;2.40;;;18.70;63.80;;;;;;5037723;28;20436;-81
2021/12/19 04:20:35;;;;;;;2.60;2.40;;;18.70;63.80;;;;;;5043343;28;20436;-81
2021/12/19 04:23:04;;;;;;;3.73;2.70;;;18.70;63.80;;;;;;5039206;28;20436;-82
2021/12/19 04:25:32;;;;;;;2.87;2.67;;;18.70;63.80;;;;;;5041855;28;20456;-82
2021/12/19 04:28:00;;;;;;;3.10;2.43;;;18.60;63.70;;;;;;5043933;28;20435;-82
2021/12/19 04:30:28;;;;;;;2.47;2.37;;;18.60;63.90;;;;;;5031245;28;20455;-82
2021/12/19 04:33:01;;;;;;;3.53;2.63;;;18.60;63.70;;;;;;5040563;28;20471;-82
2021/12/19 04:35:35;;;;;;;2.57;2.37;;;18.60;63.70;;;;;;5030123;28;20475;-83
2021/12/19 04:41:05;;;;;;;2.50;2.40;;;18.60;64.00;;;;;;5050925;28;20444;-82
2021/12/19 04:52:28;;;;;;;3.00;2.63;;;18.60;63.90;;;;;;5052229;28;20539;-82
2021/12/19 04:55:16;;;;;;;3.20;2.40;;;18.60;63.90;;;;;;5048043;28;20482;-82
2021/12/19 04:57:49;;;;;;;3.07;2.10;;;18.60;63.90;;;;;;5050978;28;20485;-82
2021/12/19 05:00:21;;;;;;;3.57;2.40;;;18.60;63.80;;;;;;5049598;28;20442;-81
2021/12/19 05:02:53;;;;;;;3.73;2.70;;;18.60;63.90;;;;;;5033533;28;20528;-83
2021/12/19 05:05:52;;;;;;;2.40;2.20;;;18.60;63.80;;;;;;5031014;28;20424;-83
2021/12/19 05:14:12;;;;;;;3.73;2.67;;;18.60;63.90;;;;;;5039567;28;20460;-82
2021/12/19 05:16:43;;;;;;;8.10;2.60;;;18.60;64.00;;;;;;5048046;28;20439;-81
2021/12/19 05:19:23;;;;;;;4.33;2.60;;;18.50;64.00;;;;;;5047878;28;20451;-81
2021/12/19 05:21:54;;;;;;;3.03;2.20;;;18.60;63.90;;;;;;5047912;28;20454;-81
2021/12/19 05:27:10;;;;;;;2.87;2.13;;;18.60;64.00;;;;;;5041078;28;20550;-81
2021/12/19 05:29:39;;;;;;;3.10;2.40;;;18.60;64.00;;;;;;5047999;28;20459;-81
2021/12/19 05:32:07;;;;;;;2.97;2.67;;;18.60;63.90;;;;;;5049360;28;20483;-81
2021/12/19 05:34:35;;;;;;;3.50;2.30;;;18.60;63.90;;;;;;5050190;28;20491;-81
2021/12/19 05:45:22;;;;;;;3.40;2.47;;;18.50;63.60;;;;;;5038601;28;20447;-82
2021/12/19 05:47:51;;;;;;;2.00;1.90;;;18.60;63.90;;;;;;5038673;28;20511;-81
2021/12/19 05:50:19;;;;;;;4.80;2.40;;;18.60;63.80;;;;;;5038332;28;20436;-81
2021/12/19 05:52:47;;;;;;;3.03;2.30;;;18.50;63.70;;;;;;5037400;28;20563;-81
2021/12/19 05:55:17;;;;;;;2.50;2.20;;;18.60;63.80;;;;;;5037981;28;20535;-81
2021/12/19 05:57:45;;;;;;;2.57;2.37;;;18.60;63.70;;;;;;5038193;28;21002;-81
2021/12/19 06:00:15;;;;;;;4.13;2.40;;;18.50;64.30;;;;;;5037692;28;20482;-81
2021/12/19 06:02:43;;;;;;;2.50;2.30;;;18.60;63.70;;;;;;5038293;28;20534;-81
2021/12/19 06:05:12;;;;;;;2.70;2.50;;;18.60;63.80;;;;;;5037520;28;20432;-81
2021/12/19 06:07:40;;;;;;;2.77;2.40;;;18.60;63.70;;;;;;5037936;28;20499;-81
2021/12/19 06:10:09;;;;;;;6.07;2.50;;;18.60;63.70;;;;;;5038439;28;20527;-81
2021/12/19 06:12:38;;;;;;;3.10;2.37;;;18.50;63.40;;;;;;5038052;28;20502;-81
2021/12/19 06:15:08;;;;;;;5.10;2.87;;;18.60;63.80;;;;;;5037511;28;20511;-81
2021/12/19 06:17:36;;;;;;;3.57;2.47;;;18.50;63.50;;;;;;5037707;28;20525;-81
2021/12/19 06:20:05;;;;;;;2.83;2.10;;;18.50;63.70;;;;;;5037325;28;20470;-81
2021/12/19 06:22:33;;;;;;;3.00;2.57;;;18.50;63.60;;;;;;5032441;28;20495;-81
2021/12/19 06:25:01;;;;;;;4.43;2.90;;;18.50;63.50;;;;;;5037553;28;20546;-81
2021/12/19 06:27:28;;;;;;;3.07;2.20;;;18.50;63.50;;;;;;5037234;28;20458;-81
2021/12/19 06:29:58;;;;;;;3.07;2.47;;;18.50;63.40;;;;;;5037081;28;20428;-81
2021/12/19 06:32:26;;;;;;;5.53;2.60;;;18.60;63.80;;;;;;5037223;28;20495;-81
2021/12/19 06:34:54;;;;;;;4.70;2.97;;;18.60;63.60;;;;;;5036977;28;20554;-82
2021/12/19 06:37:22;;;;;;;3.23;2.80;;;18.60;63.50;;;;;;5037175;28;20434;-81
2021/12/19 06:39:50;;;;;;;2.70;2.17;;;18.50;63.50;;;;;;5037579;28;20479;-81
2021/12/19 06:42:18;;;;;;;2.40;2.20;;;18.50;63.50;;;;;;5036370;28;20459;-81
2021/12/19 06:44:46;;;;;;;2.50;2.30;;;18.60;63.60;;;;;;5020572;28;20563;-81
2021/12/19 06:47:16;;;;;;;3.77;2.43;;;18.60;63.40;;;;;;5017304;28;20479;-82
2021/12/19 06:49:44;;;;;;;2.37;2.17;;;18.50;63.40;;;;;;5017521;28;20464;-81
2021/12/19 06:52:13;;;;;;;2.27;1.90;;;18.60;63.60;;;;;;5017362;28;20440;-81
2021/12/19 06:54:41;;;;;;;2.60;2.40;;;18.60;63.60;;;;;;5017180;28;20555;-81
2021/12/19 06:57:09;;;;;;;7.30;2.97;;;18.60;63.60;;;;;;5017469;28;20495;-81
2021/12/19 06:59:37;;;;;;;2.80;2.57;;;18.50;63.30;;;;;;5020901;28;20542;-81
2021/12/19 07:02:05;;;;;;;3.43;2.53;;;18.50;63.30;;;;;;5037812;28;20431;-81
2021/12/19 07:04:34;;;;;;;2.60;2.40;;;18.50;63.50;;;;;;5037483;28;20551;-81
2021/12/19 07:07:03;;;;;;;2.63;2.43;;;18.50;63.40;;;;;;5040117;28;20435;-81
2021/12/19 07:09:31;;;;;;;2.63;2.40;;;18.50;63.50;;;;;;5040800;28;20467;-81
2021/12/19 07:11:59;;;;;;;2.80;2.30;;;18.50;63.50;;;;;;5041336;28;20509;-81
2021/12/19 07:14:27;;;;;;;2.90;2.70;;;18.50;63.50;;;;;;5041015;28;20518;-81
2021/12/19 07:16:55;;;;;;;2.30;2.20;;;18.50;63.50;;;;;;5028215;28;20452;-81
2021/12/19 07:19:23;;;;;;;5.47;2.47;;;18.50;63.50;;;;;;5040676;28;20428;-81
2021/12/19 07:21:53;;;;;;;2.30;2.10;;;18.50;63.50;;;;;;5040290;28;20502;-81
2021/12/19 07:24:20;;;;;;;2.30;2.20;;;18.50;63.40;;;;;;5040298;28;20558;-81
2021/12/19 07:26:49;;;;;;;2.23;2.03;;;18.50;63.40;;;;;;5039679;28;20466;-81
2021/12/19 07:29:16;;;;;;;2.83;2.40;;;18.50;63.50;;;;;;5040647;28;20509;-81
2021/12/19 07:31:45;;;;;;;2.47;2.20;;;18.50;63.40;;;;;;5040376;28;20471;-81
2021/12/19 07:34:13;;;;;;;2.43;2.20;;;18.50;63.30;;;;;;5038643;28;20502;-81
2021/12/19 07:36:49;;;;;;;3.10;2.90;;;18.50;63.40;;;;;;5039706;28;20444;-81
2021/12/19 07:39:26;;;;;;;2.00;1.90;;;18.50;63.40;;;;;;5040220;28;20530;-81
2021/12/19 07:41:54;;;;;;;2.60;2.40;;;18.50;63.50;;;;;;5040125;28;20451;-80
2021/12/19 07:44:22;;;;;;;2.43;2.23;;;18.50;63.40;;;;;;5039184;28;20459;-82
2021/12/19 07:46:50;;;;;;;2.20;2.00;;;18.50;63.40;;;;;;5040208;28;20822;-81
2021/12/19 07:49:18;;;;;;;2.43;2.23;;;18.50;63.50;;;;;;5039308;28;20474;-81
2021/12/19 07:51:46;;;;;;;2.50;2.20;;;18.50;63.60;;;;;;5034402;28;20546;-81
2021/12/19 07:54:14;;;;;;;2.40;2.20;;;18.50;63.50;;;;;;5039203;28;20485;-81
2021/12/19 07:56:43;;;;;;;2.00;1.90;;;18.50;63.60;;;;;;5039520;28;20527;-81
2021/12/19 07:59:11;;;;;;;2.30;2.10;;;18.50;63.50;;;;;;5040566;28;20538;-81
2021/12/19 08:01:39;;;;;;;2.93;2.73;;;18.50;63.50;;;;;;5040600;28;20953;-81
2021/12/19 08:04:08;;;;;;;2.30;2.20;;;18.50;63.40;;;;;;5040038;28;20519;-81
2021/12/19 08:06:36;;;;;;;3.90;2.23;;;18.50;63.40;;;;;;5034641;28;20534;-81
2021/12/19 08:09:09;;;;;;;4.00;2.60;;;18.50;63.60;;;;;;5023226;28;20448;-81
2021/12/19 08:11:42;;;;;;;3.50;2.20;;;18.50;63.60;;;;;;5031679;28;20555;-80
2021/12/19 08:14:12;;;;;;;3.00;2.80;;;18.40;63.30;;;;;;5019768;28;20503;-80
2021/12/19 08:16:41;;;;;;;2.50;2.33;;;18.40;63.50;;;;;;5029927;28;20432;-81
2021/12/19 08:19:09;;;;;;;2.20;2.10;;;18.50;63.50;;;;;;5040138;28;20860;-80
2021/12/19 08:21:37;;;;;;;2.53;2.33;;;18.50;63.60;;;;;;5033810;28;20457;-80
2021/12/19 08:24:10;;;;;;;2.43;2.23;;;18.50;63.40;;;;;;5030593;28;20547;-80
2021/12/19 08:26:38;;;;;;;3.37;2.23;;;18.50;63.50;;;;;;5031076;28;20475;-80
2021/12/19 08:29:11;;;;;;;1.93;1.83;;;18.50;63.40;;;;;;5033516;28;20420;-81
2021/12/19 08:31:39;;;;;;;2.60;2.30;;;18.50;63.60;;;;;;5044320;28;20451;-80
2021/12/19 08:34:08;;;;;;;2.80;2.30;;;18.50;63.30;;;;;;5041713;28;20479;-83
2021/12/19 08:36:36;;;;;;;6.53;2.10;;;18.50;63.30;;;;;;5042516;28;20501;-81
2021/12/19 08:39:04;;;;;;;2.20;2.10;;;18.50;63.40;;;;;;5027665;28;20443;-82
2021/12/19 08:41:37;;;;;;;5.50;2.40;;;18.50;63.20;;;;;;5022327;28;20448;-83
2021/12/19 08:44:05;;;;;;;6.70;2.90;;;18.60;63.50;;;;;;5039007;28;20475;-84
2021/12/19 08:46:35;;;;;;;7.70;2.17;;;18.20;58.30;;;;;;5038538;28;20471;-84
2021/12/19 08:49:03;;;;;;;5.47;2.33;;;17.60;57.60;;;;;;5038717;28;20432;-84
2021/12/19 08:51:32;;;;;;;10.07;2.87;;;17.60;59.70;;;;;;5038331;28;20495;-84
2021/12/19 08:54:00;;;;;;;10.83;2.63;;;17.20;57.10;;;;;;5038563;28;20467;-84
2021/12/19 08:56:29;;;;;;;9.70;2.33;;;17.30;57.30;;;;;;5038263;28;20464;-84
2021/12/19 08:58:57;;;;;;;5.37;2.10;;;17.20;56.80;;;;;;5040556;28;20458;-81
2021/12/19 09:01:25;;;;;;;7.10;2.13;;;17.30;58.90;;;;;;5041272;28;20440;-80
2021/12/19 09:03:54;;;;;;;4.57;2.30;;;17.60;58.50;;;;;;5035180;28;20515;-81
2021/12/19 09:06:23;;;;;;;9.70;2.50;;;17.90;58.20;;;;;;5021104;28;20912;-81
2021/12/19 09:08:51;;;;;;;5.50;1.97;;;18.10;58.10;;;;;;5021689;28;20963;-81
2021/12/19 09:11:19;;;;;;;3.70;2.07;;;18.20;58.00;;;;;;5037535;28;20493;-85
2021/12/19 09:13:47;;;;;;;7.17;2.43;;;18.00;55.60;;;;;;5038480;28;20471;-84
2021/12/19 09:16:17;;;;;;;7.30;2.73;;;16.20;57.10;;;;;;5035413;28;20491;-85
2021/12/19 09:19:07;;;;;;;12.27;2.60;;;15.40;60.30;;;;;;5018748;28;20420;-84
2021/12/19 09:21:35;;;;;;;9.93;2.30;;;14.70;61.40;;;;;;5019038;28;20472;-85
2021/12/19 09:24:04;;;;;;;7.53;2.53;;;13.90;64.70;;;;;;5018660;28;20457;-84
2021/12/19 09:26:32;;;;;;;11.33;2.67;;;14.20;65.10;;;;;;5018824;28;20452;-84
2021/12/19 09:29:00;;;;;;;8.63;2.17;;;14.00;66.90;;;;;;5018799;28;20528;-84
2021/12/19 09:31:29;;;;;;;8.33;2.53;;;13.60;66.70;;;;;;5018656;28;20479;-84
2021/12/19 09:33:58;;;;;;;5.57;2.33;;;13.40;68.10;;;;;;5025364;28;20479;-84
2021/12/19 09:36:28;;;;;;;6.80;2.37;;;13.70;66.90;;;;;;5038953;28;20447;-84
2021/12/19 09:38:56;;;;;;;4.70;2.07;;;13.90;66.20;;;;;;5036531;28;20443;-83
2021/12/19 09:41:28;;;;;;;37.67;3.70;;;14.80;71.50;;;;;;5037152;28;20432;-84
2021/12/19 09:43:58;;;;;;;20.33;3.80;;;15.60;64.20;;;;;;5037195;28;20463;-83
2021/12/19 09:46:29;;;;;;;11.53;3.50;;;15.90;64.10;;;;;;5037452;28;20477;-82
2021/12/19 09:48:57;;;;;;;11.83;3.03;;;17.10;66.60;;;;;;5033438;28;20431;-83
2021/12/19 09:51:25;;;;;;;10.47;2.53;;;17.90;64.80;;;;;;5016674;28;20536;-83
2021/12/19 09:53:55;;;;;;;8.63;2.50;;;18.50;63.30;;;;;;5016693;28;21050;-83
2021/12/19 09:56:23;;;;;;;11.73;2.67;;;19.10;62.70;;;;;;5016705;28;20440;-83
2021/12/19 09:58:53;;;;;;;13.40;3.03;;;19.50;62.10;;;;;;5016454;28;20440;-83
2021/12/19 10:01:21;;;;;;;18.20;3.00;;;19.80;61.90;;;;;;5016326;28;20463;-82
2021/12/19 10:03:48;;;;;;;8.47;2.57;;;20.10;61.70;;;;;;5016349;28;20502;-83
2021/12/19 10:06:18;;;;;;;11.30;2.83;;;20.30;61.80;;;;;;5021239;28;20443;-83
2021/12/19 10:08:48;;;;;;;12.93;2.93;;;20.50;61.90;;;;;;5035999;28;20495;-83
2021/12/19 10:11:34;;;;;;;12.87;3.00;;;20.70;62.20;;;;;;5035453;28;20474;-82
2021/12/19 10:14:03;;;;;;;11.07;3.30;;;20.90;62.50;;;;;;5034482;28;20551;-83
2021/12/19 10:16:31;;;;;;;9.07;2.90;;;21.00;62.60;;;;;;5034780;28;20475;-83
2021/12/19 10:19:00;;;;;;;5.83;2.60;;;21.10;62.50;;;;;;5034713;28;20444;-82
2021/12/19 10:21:28;;;;;;;5.80;2.87;;;21.10;62.10;;;;;;5034666;28;20455;-80
2021/12/19 10:24:00;;;;;;;7.33;2.80;;;21.20;61.90;;;;;;5023013;28;20492;-82
2021/12/19 10:26:41;;;;;;;7.20;3.00;;;21.20;61.80;;;;;;5015561;28;20436;-82
2021/12/19 10:29:10;;;;;;;7.93;2.90;;;21.30;61.30;;;;;;5015245;28;20904;-82
2021/12/19 10:31:39;;;;;;;5.53;2.30;;;21.30;61.20;;;;;;5015171;28;20480;-83
2021/12/19 10:34:20;;;;;;;14.10;2.73;;;21.30;61.20;;;;;;5026985;28;21073;-81
2021/12/19 10:36:48;;;;;;;6.77;2.57;;;21.40;60.90;;;;;;5034960;28;20514;-80
2021/12/19 10:39:24;;;;;;;13.53;3.40;;;21.50;60.90;;;;;;5034175;28;20446;-81
2021/12/19 10:41:59;;;;;;;37.33;5.20;;;21.50;61.00;;;;;;5037978;28;20473;-81
2021/12/19 10:47:23;;;;;;;31.37;6.43;;;21.70;62.40;;;;;;5038454;28;20420;-82
2021/12/19 10:49:51;;;;;;;23.13;6.30;;;21.80;63.20;;;;;;5039658;28;20521;-81
2021/12/19 10:52:31;;;;;;;12.23;5.10;;;21.80;62.00;;;;;;5033607;28;20474;-81
2021/12/19 10:55:00;;;;;;;26.50;5.37;;;21.80;61.30;;;;;;5038126;28;20561;-81
2021/12/19 10:57:34;;;;;;;34.20;6.03;;;21.70;61.20;;;;;;5039864;28;20431;-82
2021/12/19 11:00:02;;;;;;;11.50;5.43;;;21.70;61.00;;;;;;5039186;28;20457;-81
2021/12/19 11:02:41;;;;;;;9.83;4.93;;;21.60;60.50;;;;;;5040103;28;20471;-82
2021/12/19 11:05:33;;;;;;;13.57;5.10;;;21.60;60.60;;;;;;5038607;28;20439;-83
2021/12/19 11:08:01;;;;;;;20.43;5.10;;;21.60;60.30;;;;;;5038475;28;20587;-83
2021/12/19 11:10:29;;;;;;;16.93;4.63;;;21.60;59.80;;;;;;5019147;28;20458;-82
2021/12/19 11:13:09;;;;;;;16.93;4.13;;;21.40;59.20;;;;;;5019370;28;20415;-83
2021/12/19 11:15:37;;;;;;;19.20;4.40;;;21.00;59.00;;;;;;5027813;28;20463;-82
2021/12/19 11:18:05;;;;;;;21.47;4.20;;;20.80;58.40;;;;;;5038911;28;20495;-81
2021/12/19 11:20:33;;;;;;;14.07;4.27;;;20.80;59.30;;;;;;5031963;28;20460;-81
2021/12/19 11:23:00;;;;;;;15.63;3.50;;;20.80;58.90;;;;;;5031455;28;21046;-82
2021/12/19 11:25:28;;;;;;;21.53;5.03;;;20.70;58.80;;;;;;5018746;28;20515;-82
2021/12/19 11:27:56;;;;;;;12.33;3.80;;;20.70;58.60;;;;;;5037466;28;20474;-80
2021/12/19 11:30:25;;;;;;;13.03;5.30;;;20.60;58.40;;;;;;5038425;28;20498;-79
2021/12/19 11:33:02;;;;;;;12.53;4.70;;;20.60;58.70;;;;;;5038115;28;20478;-81
2021/12/19 11:35:31;;;;;;;10.73;5.13;;;20.60;59.20;;;;;;5040094;28;20455;-83
2021/12/19 11:38:01;;;;;;;15.90;4.67;;;20.60;60.00;;;;;;5040765;28;20498;-82
2021/12/19 11:40:31;;;;;;;15.70;5.50;;;20.60;60.70;;;;;;5039681;28;20447;-83
2021/12/19 11:43:01;;;;;;;15.10;4.90;;;20.60;61.70;;;;;;5038510;28;20521;-82
2021/12/19 11:45:35;;;;;;;18.57;5.90;;;20.70;62.30;;;;;;5038717;28;20479;-80
2021/12/19 11:48:08;;;;;;;18.80;5.23;;;20.70;63.10;;;;;;5039530;28;20482;-81
2021/12/19 11:50:37;;;;;;;17.07;6.17;;;20.70;63.50;;;;;;5042543;28;20432;-81
2021/12/19 11:53:22;;;;;;;13.57;4.33;;;20.80;64.20;;;;;;5041129;28;20437;-82
2021/12/19 11:55:50;;;;;;;14.77;4.87;;;20.80;64.50;;;;;;5034260;28;20905;-82
2021/12/19 11:58:28;;;;;;;9.10;4.10;;;20.80;65.20;;;;;;5026276;28;20433;-80
2021/12/19 12:01:06;;;;;;;7.70;4.30;;;21.00;63.30;;;;;;5025713;28;20439;-80
2021/12/19 12:03:50;;;;;;;18.40;5.30;;;21.00;62.10;;;;;;5020800;28;20487;-82
2021/12/19 12:06:31;;;;;;;15.33;4.20;;;20.90;63.20;;;;;;5034621;28;20507;-81
2021/12/19 12:09:15;;;;;;;16.00;5.00;;;21.00;63.30;;;;;;5041400;28;20467;-82
2021/12/19 12:12:27;;;;;;;10.20;4.20;;;21.10;63.60;;;;;;5040063;28;20404;-81
2021/12/19 12:15:05;;;;;;;20.20;4.70;;;21.10;64.40;;;;;;5014237;28;20555;-80
2021/12/19 12:17:45;;;;;;;13.77;4.00;;;21.10;64.80;;;;;;5022895;28;20488;-80
2021/12/19 12:20:18;;;;;;;15.83;4.73;;;21.10;65.50;;;;;;5035718;28;20435;-80
2021/12/19 12:23:09;;;;;;;16.23;4.53;;;21.10;65.80;;;;;;5023058;28;20448;-79
2021/12/19 12:25:41;;;;;;;34.43;5.17;;;21.10;66.30;;;;;;5018165;28;20428;-77
2021/12/19 12:28:16;;;;;;;28.93;4.67;;;21.00;66.80;;;;;;5019135;28;20523;-79
2021/12/19 12:30:45;;;;;;;6.47;3.80;;;21.10;67.30;;;;;;5019914;28;20440;-80
2021/12/19 12:33:16;;;;;;;16.33;4.40;;;21.00;67.20;;;;;;5022672;28;20524;-80
2021/12/19 12:35:45;;;;;;;10.37;4.10;;;21.00;67.50;;;;;;5032778;28;20479;-82
2021/12/19 12:38:14;;;;;;;10.80;3.97;;;21.00;67.60;;;;;;5041814;28;20447;-82
2021/12/19 12:40:49;;;;;;;29.67;4.00;;;21.00;67.90;;;;;;5040089;28;20436;-80
2021/12/19 12:43:18;;;;;;;16.17;4.10;;;21.00;68.20;;;;;;5030827;28;20451;-79
2021/12/19 12:46:01;;;;;;;10.50;3.87;;;21.00;68.30;;;;;;5039092;28;20765;-80
2021/12/19 12:48:33;;;;;;;11.53;4.70;;;21.00;68.70;;;;;;5017680;28;20527;-81
2021/12/19 12:51:07;;;;;;;10.97;4.10;;;20.90;68.70;;;;;;5031102;28;20451;-80
2021/12/19 12:53:36;;;;;;;10.60;3.63;;;20.90;68.80;;;;;;5024477;28;20809;-82
2021/12/19 12:56:12;;;;;;;15.17;4.07;;;20.90;69.00;;;;;;5029839;28;20471;-80
2021/12/19 12:58:42;;;;;;;33.47;4.80;;;20.80;69.00;;;;;;5031045;28;20503;-80
2021/12/19 13:01:35;;;;;;;11.20;4.00;;;20.90;70.10;;;;;;5026377;28;20466;-81
2021/12/19 13:04:15;;;;;;;9.07;4.00;;;20.90;70.00;;;;;;5025821;28;20456;-81
2021/12/19 13:06:50;;;;;;;8.97;3.50;;;21.00;70.10;;;;;;5024797;28;20491;-81
2021/12/19 13:09:19;;;;;;;9.27;4.17;;;21.00;69.60;;;;;;5026000;28;20491;-82
2021/12/19 13:11:49;;;;;;;18.77;4.83;;;21.10;69.60;;;;;;5039162;28;20424;-78
2021/12/19 13:14:19;;;;;;;13.93;3.40;;;21.10;69.60;;;;;;5024640;28;20474;-78
2021/12/19 13:16:49;;;;;;;16.17;4.07;;;21.10;69.20;;;;;;5021106;28;21013;-78
2021/12/19 13:19:48;;;;;;;30.13;4.23;;;21.10;70.00;;;;;;5025555;28;20466;-80
2021/12/19 13:22:21;;;;;;;14.50;3.70;;;21.00;69.40;;;;;;5029654;28;20456;-80
2021/12/19 13:24:50;;;;;;;19.80;3.93;;;21.00;69.60;;;;;;5038894;28;20503;-80
2021/12/19 13:27:19;;;;;;;11.43;3.30;;;21.00;69.70;;;;;;5022783;28;20498;-79
2021/12/19 13:29:59;;;;;;;25.47;4.13;;;20.90;69.70;;;;;;5020715;28;20460;-79
2021/12/19 13:32:30;;;;;;;15.03;3.60;;;20.90;70.30;;;;;;5021805;28;20443;-80
2021/12/19 13:34:59;;;;;;;11.77;3.73;;;20.90;70.30;;;;;;5022330;28;20468;-80
2021/12/19 13:37:32;;;;;;;16.87;3.67;;;20.90;70.40;;;;;;5020832;28;20484;-79
2021/12/19 13:40:03;;;;;;;13.63;3.20;;;20.90;70.60;;;;;;5023351;28;20480;-81
2021/12/19 13:42:41;;;;;;;6.47;3.30;;;20.90;70.90;;;;;;5037308;28;20514;-79
2021/12/19 13:45:42;;;;;;;8.33;3.40;;;20.90;70.60;;;;;;5022144;28;20488;-81
2021/12/19 13:48:22;;;;;;;11.37;3.37;;;20.90;70.80;;;;;;5022076;28;20436;-80
2021/12/19 13:50:54;;;;;;;15.83;3.67;;;20.80;71.30;;;;;;5027895;28;20504;-83
2021/12/19 13:53:23;;;;;;;22.10;3.33;;;20.80;71.80;;;;;;5020379;28;20457;-82